Time;durP1;ratioP1;P1;durP2;ratioP2;P2;SDS_P1;SDS_P2;PMS_P1;PMS_P2;Temp;Humidity;BMP_temperature;BMP_pressure;BME280_temperature;BME280_humidity;BME280_pressure;Samples;Min_cycle;Max_cycle;Signal;HPM_P1;HPM_P2
2022/06/29 00:00:21;;;;;;;0.73;0.52;;;;;;;27.09;48.11;99073.91;5089198;28;20051;-63
2022/06/29 00:02:47;;;;;;;0.70;0.60;;;;;;;26.96;49.11;99060.84;5081549;28;20048;-62
2022/06/29 00:05:15;;;;;;;0.98;0.60;;;;;;;26.84;49.73;99065.03;5087898;28;20040;-63
2022/06/29 00:07:42;;;;;;;0.60;0.60;;;;;;;26.82;49.69;99057.03;5068211;28;20036;-62
2022/06/29 00:10:08;;;;;;;0.63;0.47;;;;;;;26.89;49.40;99059.75;5083411;28;20047;-62
2022/06/29 00:12:33;;;;;;;0.70;0.43;;;;;;;26.98;49.23;99055.59;5068460;28;20044;-62
2022/06/29 00:15:02;;;;;;;0.95;0.60;;;;;;;27.02;49.01;99059.16;5071851;28;20043;-62
2022/06/29 00:17:28;;;;;;;0.85;0.60;;;;;;;27.08;49.02;99046.25;5082116;28;20419;-62
2022/06/29 00:19:53;;;;;;;0.57;0.50;;;;;;;27.09;48.91;99047.84;5088496;28;20509;-62
2022/06/29 00:22:19;;;;;;;0.70;0.60;;;;;;;27.13;48.67;99060.56;5081945;28;20093;-63
2022/06/29 00:24:46;;;;;;;0.63;0.50;;;;;;;27.15;48.87;99058.16;5082250;28;20078;-62
2022/06/29 00:27:12;;;;;;;0.50;0.43;;;;;;;27.08;47.80;99055.47;5081556;28;20125;-62
2022/06/29 00:29:37;;;;;;;0.70;0.52;;;;;;;26.93;49.55;99062.47;5087512;28;20434;-62
2022/06/29 00:32:03;;;;;;;1.17;0.60;;;;;;;26.83;49.82;99052.22;5083498;28;20121;-62
2022/06/29 00:34:30;;;;;;;0.63;0.50;;;;;;;26.84;49.50;99056.63;5084656;28;20499;-62
2022/06/29 00:36:55;;;;;;;0.60;0.60;;;;;;;26.90;49.71;99052.13;5078810;28;20571;-62
2022/06/29 00:39:21;;;;;;;0.88;0.60;;;;;;;26.97;49.54;99039.97;5069911;28;20048;-63
2022/06/29 00:41:46;;;;;;;0.50;0.50;;;;;;;27.05;49.32;99047.88;5087321;28;20044;-62
2022/06/29 00:44:14;;;;;;;1.02;0.70;;;;;;;27.07;49.31;99050.25;5072720;28;20044;-59
2022/06/29 00:46:46;;;;;;;1.15;0.80;;;;;;;27.11;49.27;99049.00;5087382;28;20132;-58
2022/06/29 00:49:12;;;;;;;0.98;0.75;;;;;;;27.14;49.15;99050.13;5082627;28;20071;-60
2022/06/29 00:51:40;;;;;;;0.88;0.60;;;;;;;27.17;49.11;99049.31;5080017;28;20070;-59
2022/06/29 00:54:08;;;;;;;0.98;0.70;;;;;;;27.15;48.64;99046.94;5074753;28;20544;-59
2022/06/29 00:56:34;;;;;;;1.23;0.70;;;;;;;27.02;48.06;99045.91;5079819;28;20045;-59
2022/06/29 00:59:04;;;;;;;0.77;0.70;;;;;;;26.83;49.79;99043.81;5087915;28;20123;-59
2022/06/29 01:01:30;;;;;;;0.80;0.60;;;;;;;26.80;50.09;99048.25;5081892;28;20456;-58
2022/06/29 01:03:56;;;;;;;0.70;0.60;;;;;;;26.81;49.92;99046.25;5089830;28;20043;-59
2022/06/29 01:06:23;;;;;;;1.17;0.70;;;;;;;26.91;49.49;99047.28;5087866;28;20043;-59
2022/06/29 01:08:49;;;;;;;0.82;0.60;;;;;;;26.92;49.41;99040.47;5088268;28;20040;-59
2022/06/29 01:11:14;;;;;;;0.50;0.50;;;;;;;26.97;49.13;99029.53;5086848;28;20056;-59
2022/06/29 01:13:44;;;;;;;0.90;0.60;;;;;;;27.02;49.32;99028.28;5088153;28;20040;-59
2022/06/29 01:16:09;;;;;;;0.80;0.50;;;;;;;27.07;49.14;99013.75;5086978;28;20081;-59
2022/06/29 01:18:35;;;;;;;0.95;0.68;;;;;;;27.12;49.02;99021.69;5087911;28;20138;-59
2022/06/29 01:21:04;;;;;;;0.70;0.50;;;;;;;27.15;49.04;99026.47;5075259;28;20043;-59
2022/06/29 01:23:31;;;;;;;0.45;0.45;;;;;;;27.14;48.94;99028.47;5078662;28;20139;-59
2022/06/29 01:25:56;;;;;;;1.00;0.65;;;;;;;27.16;49.08;99019.63;5087882;28;20411;-59
2022/06/29 01:28:22;;;;;;;0.93;0.60;;;;;;;27.18;48.86;99027.63;5075510;28;20511;-59
2022/06/29 01:30:47;;;;;;;0.82;0.60;;;;;;;27.15;48.76;99023.69;5085613;28;20052;-61
2022/06/29 01:33:13;;;;;;;0.73;0.60;;;;;;;27.12;47.39;99030.13;5079454;28;20096;-62
2022/06/29 01:35:38;;;;;;;1.10;0.68;;;;;;;26.93;49.13;99033.63;5083137;28;20036;-62
2022/06/29 01:38:03;;;;;;;0.85;0.70;;;;;;;26.86;49.69;99021.31;5082014;28;20389;-62
2022/06/29 01:40:29;;;;;;;0.70;0.60;;;;;;;26.82;49.73;99026.19;5082486;28;20028;-62
2022/06/29 01:42:55;;;;;;;0.88;0.60;;;;;;;26.84;50.10;99031.34;5085069;28;20051;-62
2022/06/29 01:45:21;;;;;;;1.17;0.70;;;;;;;26.92;49.49;99026.44;5087299;28;20043;-62
2022/06/29 01:47:46;;;;;;;0.57;0.50;;;;;;;26.96;49.38;99019.53;5088989;28;20055;-62
2022/06/29 01:50:12;;;;;;;0.52;0.52;;;;;;;27.05;49.43;99024.63;5080849;28;20462;-63
2022/06/29 01:52:37;;;;;;;1.25;0.60;;;;;;;27.05;49.35;99027.44;5091106;28;20036;-62
2022/06/29 01:55:03;;;;;;;0.70;0.60;;;;;;;27.09;49.33;99023.38;5089920;28;20130;-62
2022/06/29 01:57:29;;;;;;;1.40;0.85;;;;;;;27.09;49.45;99020.56;5084093;28;20040;-62
2022/06/29 01:59:54;;;;;;;1.10;0.70;;;;;;;27.14;49.04;99027.69;5090927;28;20040;-62
2022/06/29 02:02:19;;;;;;;0.93;0.60;;;;;;;27.18;48.93;99033.25;5085806;28;20079;-62
2022/06/29 02:04:45;;;;;;;0.80;0.60;;;;;;;27.19;49.10;99029.22;5089940;28;20043;-62
2022/06/29 02:07:10;;;;;;;2.20;0.70;;;;;;;27.21;48.91;99027.56;5090652;28;20629;-62
2022/06/29 02:09:36;;;;;;;0.85;0.57;;;;;;;27.19;49.03;99015.97;5090800;28;20385;-63
2022/06/29 02:12:01;;;;;;;1.20;0.45;;;;;;;27.04;48.10;99011.78;5078145;28;20049;-64
2022/06/29 02:14:27;;;;;;;1.00;0.73;;;;;;;26.86;49.67;99015.69;5070430;28;20032;-62
2022/06/29 02:16:52;;;;;;;0.57;0.50;;;;;;;26.79;50.21;99010.19;5062909;28;20103;-62
2022/06/29 02:19:18;;;;;;;0.98;0.68;;;;;;;26.82;50.02;99011.34;5067349;28;20048;-62
2022/06/29 02:21:43;;;;;;;0.90;0.70;;;;;;;26.86;50.04;99001.66;5064093;28;20056;-62
2022/06/29 02:24:09;;;;;;;1.00;0.70;;;;;;;26.95;49.63;99003.13;5060905;28;20044;-62
2022/06/29 02:26:34;;;;;;;0.75;0.63;;;;;;;26.98;49.66;99002.25;5068482;28;20059;-62
2022/06/29 02:29:00;;;;;;;0.95;0.60;;;;;;;27.03;49.46;99001.78;5059168;28;20048;-62
2022/06/29 02:36:53;;;;;;;1.38;0.77;;;;;;;27.14;49.06;99000.38;5071639;28;20125;-62
2022/06/29 02:39:19;;;;;;;1.45;0.80;;;;;;;27.13;49.21;99001.63;5070466;28;20135;-62
2022/06/29 02:41:44;;;;;;;0.65;0.55;;;;;;;27.17;49.14;98998.75;5070668;28;20416;-62
2022/06/29 02:44:10;;;;;;;1.17;0.60;;;;;;;27.18;49.00;98997.53;5069907;28;20044;-62
2022/06/29 02:46:36;;;;;;;1.10;0.70;;;;;;;27.19;49.00;98995.53;5068366;28;20048;-62
2022/06/29 02:49:01;;;;;;;1.10;0.75;;;;;;;27.17;48.38;98993.16;5066279;28;20035;-62
2022/06/29 02:51:27;;;;;;;0.63;0.52;;;;;;;27.06;49.32;98995.34;5068547;28;20044;-62
2022/06/29 02:53:52;;;;;;;0.60;0.50;;;;;;;26.95;49.55;98986.28;5069066;28;20048;-61
2022/06/29 02:56:17;;;;;;;1.00;0.70;;;;;;;26.92;49.90;98989.94;5070025;28;20059;-61
2022/06/29 02:58:44;;;;;;;0.57;0.50;;;;;;;26.94;49.54;98993.91;5069354;28;20044;-61
2022/06/29 03:01:09;;;;;;;1.10;0.63;;;;;;;27.01;49.44;98996.59;5066298;28;20043;-62
2022/06/29 03:03:34;;;;;;;0.95;0.60;;;;;;;27.08;49.54;98990.09;5069735;28;20036;-61
2022/06/29 03:06:00;;;;;;;0.85;0.55;;;;;;;27.11;49.19;98990.03;5064581;28;20500;-62
2022/06/29 03:08:25;;;;;;;0.47;0.43;;;;;;;27.14;49.07;98986.34;5064064;28;20082;-62
2022/06/29 03:10:51;;;;;;;1.25;0.70;;;;;;;27.19;49.26;98987.09;5068223;28;20140;-62
2022/06/29 03:13:16;;;;;;;0.90;0.60;;;;;;;27.18;49.31;98994.72;5065408;28;20037;-62
2022/06/29 03:15:42;;;;;;;0.77;0.57;;;;;;;27.17;49.21;98997.97;5066802;28;20389;-62
2022/06/29 03:18:07;;;;;;;0.57;0.50;;;;;;;27.14;48.32;99000.38;5062099;28;20041;-62
2022/06/29 03:20:33;;;;;;;0.90;0.50;;;;;;;26.99;49.76;98999.03;5066116;28;20124;-62
2022/06/29 03:22:58;;;;;;;0.93;0.70;;;;;;;26.88;49.92;98995.63;5059626;28;20056;-62
2022/06/29 03:25:23;;;;;;;0.60;0.50;;;;;;;26.87;49.91;99000.44;5054024;28;20548;-62
2022/06/29 03:27:49;;;;;;;1.15;0.75;;;;;;;26.93;50.00;98999.94;5059836;28;20044;-63
2022/06/29 03:30:15;;;;;;;0.60;0.50;;;;;;;27.00;49.81;98997.81;5063382;28;20040;-63
2022/06/29 03:32:40;;;;;;;0.95;0.70;;;;;;;27.00;49.97;99005.44;5070051;28;20033;-63
2022/06/29 03:35:08;;;;;;;1.08;0.70;;;;;;;27.04;49.49;99007.00;5065422;28;20048;-63
2022/06/29 03:37:34;;;;;;;0.93;0.70;;;;;;;27.09;49.65;99003.72;5069636;28;20447;-63
2022/06/29 03:40:00;;;;;;;1.00;0.70;;;;;;;27.13;49.41;99004.41;5069828;28;20519;-63
2022/06/29 03:42:25;;;;;;;0.85;0.70;;;;;;;27.14;49.61;99006.00;5065686;28;20607;-63
2022/06/29 03:44:51;;;;;;;0.95;0.60;;;;;;;27.17;49.52;99009.19;5058755;28;20044;-63
2022/06/29 03:47:16;;;;;;;0.93;0.70;;;;;;;27.20;49.56;99009.13;5066456;28;20615;-62
2022/06/29 03:49:41;;;;;;;0.70;0.60;;;;;;;27.19;49.51;99012.38;5068647;28;20040;-62
2022/06/29 03:52:07;;;;;;;0.90;0.68;;;;;;;27.06;48.07;99009.38;5068788;28;20040;-62
2022/06/29 03:54:32;;;;;;;1.10;0.70;;;;;;;26.86;49.87;98998.03;5069077;28;20036;-62
2022/06/29 03:56:58;;;;;;;0.70;0.52;;;;;;;26.80;50.63;98997.75;5061978;28;20501;-62
2022/06/29 03:59:23;;;;;;;0.68;0.50;;;;;;;26.82;50.59;99006.53;5058056;28;20131;-61
2022/06/29 04:01:50;;;;;;;0.98;0.60;;;;;;;26.86;50.27;99009.28;5065049;28;20420;-62
2022/06/29 04:04:15;;;;;;;0.50;0.50;;;;;;;26.89;50.29;99006.41;5066430;28;20079;-63
2022/06/29 04:06:41;;;;;;;0.93;0.70;;;;;;;26.96;50.38;99007.53;5069064;28;20076;-59
2022/06/29 04:09:06;;;;;;;0.98;0.70;;;;;;;27.01;50.27;98998.63;5069088;28;20055;-59
2022/06/29 04:11:52;;;;;;;1.17;0.60;;;;;;;27.05;50.09;98999.38;5067173;28;20045;-59
2022/06/29 04:14:28;;;;;;;1.08;0.70;;;;;;;27.11;49.99;98997.66;5063711;28;20037;-59
2022/06/29 04:16:56;;;;;;;0.77;0.60;;;;;;;27.17;49.77;99001.56;5063241;28;20033;-59
2022/06/29 04:19:22;;;;;;;0.73;0.55;;;;;;;27.15;49.79;98996.38;5068851;28;20055;-59
2022/06/29 04:21:48;;;;;;;1.02;0.70;;;;;;;27.17;49.75;98993.16;5056908;28;20385;-59
2022/06/29 04:24:14;;;;;;;0.60;0.50;;;;;;;27.20;49.76;98997.09;5067928;28;20049;-60
2022/06/29 04:26:40;;;;;;;0.77;0.65;;;;;;;27.22;49.73;99001.09;5068643;28;20094;-59
2022/06/29 04:29:06;;;;;;;1.00;0.70;;;;;;;27.13;48.44;99003.63;5068335;28;20036;-58
2022/06/29 04:31:36;;;;;;;0.65;0.60;;;;;;;26.89;50.22;99002.81;5067020;28;20044;-59
2022/06/29 04:34:02;;;;;;;0.90;0.70;;;;;;;26.76;51.16;99007.44;5068679;28;20048;-60
2022/06/29 04:36:29;;;;;;;0.52;0.52;;;;;;;26.76;51.08;99008.22;5063936;28;20629;-59
2022/06/29 04:38:54;;;;;;;1.10;0.70;;;;;;;26.83;50.71;98998.91;5064957;28;20071;-59
2022/06/29 04:41:20;;;;;;;0.85;0.65;;;;;;;26.91;50.78;99000.38;5067700;28;20404;-59
2022/06/29 04:43:46;;;;;;;0.63;0.60;;;;;;;26.99;50.46;98992.63;5068351;28;20048;-59
2022/06/29 04:46:25;;;;;;;1.13;0.60;;;;;;;27.03;50.23;98994.16;5064957;28;20098;-59
2022/06/29 04:48:56;;;;;;;0.88;0.70;;;;;;;27.06;50.11;98996.13;5064118;28;20037;-59
2022/06/29 04:51:23;;;;;;;0.85;0.60;;;;;;;27.06;50.17;98987.69;5068274;28;20415;-59
2022/06/29 04:53:49;;;;;;;0.90;0.60;;;;;;;27.13;50.13;98987.56;5064704;28;20472;-59
2022/06/29 04:56:16;;;;;;;0.68;0.63;;;;;;;27.17;50.10;98992.34;5057491;28;20049;-58
2022/06/29 04:58:43;;;;;;;1.00;0.80;;;;;;;27.16;49.85;98988.75;5068450;28;20505;-59
2022/06/29 05:01:08;;;;;;;0.98;0.63;;;;;;;27.18;49.96;98985.50;5058963;28;20412;-59
2022/06/29 05:03:34;;;;;;;0.98;0.63;;;;;;;27.19;49.76;98978.66;5062963;28;20047;-62
2022/06/29 05:06:01;;;;;;;0.70;0.50;;;;;;;27.20;49.88;98986.66;5068032;28;20097;-62
2022/06/29 05:08:26;;;;;;;0.80;0.60;;;;;;;27.21;49.77;98982.63;5068105;28;20037;-62
2022/06/29 05:10:51;;;;;;;0.60;0.50;;;;;;;27.14;48.34;98979.94;5065732;28;20099;-62
2022/06/29 05:13:17;;;;;;;0.88;0.70;;;;;;;26.98;49.93;98991.81;5058904;28;20072;-62
2022/06/29 05:15:42;;;;;;;0.80;0.68;;;;;;;26.87;50.77;98985.63;5060961;28;20051;-62
2022/06/29 05:18:08;;;;;;;1.23;0.82;;;;;;;26.85;50.59;98980.41;5063649;28;20041;-63
2022/06/29 05:20:33;;;;;;;0.98;0.70;;;;;;;26.91;50.36;98979.94;5068253;28;20482;-62
2022/06/29 05:22:59;;;;;;;1.45;0.90;;;;;;;26.97;50.38;98976.22;5069351;28;20046;-62
2022/06/29 05:25:24;;;;;;;0.60;0.60;;;;;;;27.07;50.19;98974.47;5071412;28;20043;-62
2022/06/29 05:27:50;;;;;;;1.10;0.70;;;;;;;27.10;50.09;98974.41;5071173;28;20045;-63
2022/06/29 05:30:16;;;;;;;0.90;0.60;;;;;;;27.18;49.58;98974.28;5071212;28;20048;-63
2022/06/29 05:32:42;;;;;;;1.10;0.70;;;;;;;27.10;48.85;98971.59;5051999;28;20052;-63
2022/06/29 05:35:09;;;;;;;1.42;0.70;;;;;;;26.96;50.28;98971.81;5061183;28;20048;-63
2022/06/29 05:37:35;;;;;;;1.00;0.80;;;;;;;26.93;50.50;98978.28;5067793;28;20119;-63
2022/06/29 05:40:01;;;;;;;1.05;0.73;;;;;;;26.95;50.28;98969.44;5071087;28;20055;-63
2022/06/29 05:42:26;;;;;;;0.82;0.63;;;;;;;27.04;50.26;98973.31;5070047;28;20049;-63
2022/06/29 05:44:52;;;;;;;1.00;0.70;;;;;;;27.10;49.89;98982.03;5071384;28;20072;-63
2022/06/29 05:47:17;;;;;;;1.08;0.70;;;;;;;27.15;49.71;98976.72;5074237;28;20045;-62
2022/06/29 05:49:43;;;;;;;0.75;0.63;;;;;;;27.09;48.78;98974.84;5070828;28;20036;-62
2022/06/29 05:52:10;;;;;;;28.15;1.92;;;;;;;27.00;50.31;98980.16;5067090;28;20057;-62
2022/06/29 05:54:35;;;;;;;26.52;1.95;;;;;;;27.05;50.44;98974.09;5070593;28;20128;-62
2022/06/29 05:57:02;;;;;;;33.47;1.92;;;;;;;27.08;50.18;98981.69;5066414;28;20040;-61
2022/06/29 05:59:27;;;;;;;18.67;1.35;;;;;;;27.09;49.90;98980.47;5066450;28;20047;-62
2022/06/29 06:01:53;;;;;;;13.50;1.70;;;;;;;27.18;49.91;98986.31;5071073;28;20040;-63
2022/06/29 06:04:18;;;;;;;10.77;1.30;;;;;;;27.25;49.69;98983.38;5069159;28;20048;-62
2022/06/29 06:06:44;;;;;;;11.10;1.20;;;;;;;27.32;49.41;98986.03;5070791;28;20037;-62
2022/06/29 06:09:10;;;;;;;13.30;1.20;;;;;;;27.28;49.42;98988.13;5070408;28;21238;-62
2022/06/29 06:11:36;;;;;;;9.15;1.23;;;;;;;27.33;49.14;98986.84;5071366;28;20048;-63
2022/06/29 06:14:01;;;;;;;7.20;1.50;;;;;;;27.39;49.14;98994.34;5062543;28;20095;-62
2022/06/29 06:16:27;;;;;;;14.13;1.20;;;;;;;27.40;49.03;98995.13;5070512;28;20043;-62
2022/06/29 06:18:52;;;;;;;11.60;1.38;;;;;;;27.42;49.01;98989.88;5060479;28;20135;-62
2022/06/29 06:21:19;;;;;;;4.35;1.00;;;;;;;27.47;48.68;98988.56;5056466;28;20351;-62
2022/06/29 06:23:44;;;;;;;7.68;1.00;;;;;;;27.47;48.43;98997.78;5051234;28;20049;-61
2022/06/29 06:26:09;;;;;;;6.97;1.05;;;;;;;27.48;48.74;98987.34;5063919;28;20059;-62
2022/06/29 06:28:35;;;;;;;4.35;0.90;;;;;;;27.51;48.47;98990.09;5056504;28;20033;-63
2022/06/29 06:31:01;;;;;;;6.38;1.00;;;;;;;27.51;48.37;98989.31;5070631;28;20504;-62
2022/06/29 06:33:26;;;;;;;1.30;0.88;;;;;;;27.54;48.43;98985.63;5038874;28;20037;-62
2022/06/29 06:35:52;;;;;;;3.28;1.00;;;;;;;27.50;48.28;98979.28;5067563;28;20041;-62
2022/06/29 06:38:18;;;;;;;1.73;0.80;;;;;;;27.53;48.24;98984.84;5066364;28;20043;-62
2022/06/29 06:43:27;;;;;;;4.30;1.00;;;;;;;27.54;48.28;98980.00;5073581;28;20471;-62
2022/06/29 06:45:53;;;;;;;5.00;1.17;;;;;;;27.52;48.36;98986.06;5069411;28;20049;-63
2022/06/29 06:48:19;;;;;;;3.40;1.00;;;;;;;27.52;48.20;98993.72;5067004;28;20062;-62
2022/06/29 06:50:44;;;;;;;2.95;1.20;;;;;;;27.51;48.22;98989.31;5068040;28;20537;-62
2022/06/29 06:53:09;;;;;;;2.67;1.20;;;;;;;27.52;48.23;98985.28;5053774;28;20051;-62
2022/06/29 06:55:35;;;;;;;3.90;1.33;;;;;;;27.54;47.88;98985.63;5068214;28;20040;-62
2022/06/29 06:58:01;;;;;;;17.35;8.43;;;;;;;27.51;47.49;98992.13;5063628;28;20095;-62
2022/06/29 07:00:33;;;;;;;11.52;7.90;;;;;;;27.42;47.19;98987.06;5062690;28;20571;-63
2022/06/29 07:02:58;;;;;;;12.73;5.65;;;;;;;27.27;47.62;98988.53;5044157;28;20451;-64
2022/06/29 07:05:25;;;;;;;13.75;5.05;;;;;;;27.26;47.52;98990.56;5056801;28;20484;-64
2022/06/29 07:07:51;;;;;;;10.52;3.60;;;;;;;27.24;47.23;98984.59;5061454;28;20451;-64
2022/06/29 07:10:16;;;;;;;8.25;3.25;;;;;;;27.19;46.96;98989.91;5059566;28;20044;-63
2022/06/29 07:12:41;;;;;;;6.72;2.67;;;;;;;27.19;46.94;98989.91;5050764;28;20036;-64
2022/06/29 07:15:07;;;;;;;8.93;2.60;;;;;;;27.18;46.82;98991.91;5060595;28;20043;-62
2022/06/29 07:17:33;;;;;;;12.50;4.05;;;;;;;27.17;47.29;98986.75;5056596;28;20044;-63
2022/06/29 07:19:58;;;;;;;11.75;3.88;;;;;;;27.13;47.51;98993.19;5048226;28;21141;-63
2022/06/29 07:22:23;;;;;;;11.05;3.50;;;;;;;27.13;47.79;98987.56;5047874;28;20044;-65
2022/06/29 07:24:49;;;;;;;7.13;2.65;;;;;;;27.14;47.37;98991.19;5049658;28;20781;-63
2022/06/29 07:27:15;;;;;;;8.80;3.50;;;;;;;27.13;47.45;98993.19;5056690;28;20140;-63
2022/06/29 07:29:41;;;;;;;6.90;2.40;;;;;;;27.12;47.45;98990.81;5046711;28;20075;-63
2022/06/29 07:32:07;;;;;;;11.65;2.40;;;;;;;27.12;47.62;98988.00;5055876;28;20089;-63
2022/06/29 07:34:32;;;;;;;7.53;2.33;;;;;;;27.10;47.55;98993.28;5056968;28;20052;-63
2022/06/29 07:36:58;;;;;;;12.02;3.38;;;;;;;27.11;47.59;98983.63;5062314;28;20032;-63
2022/06/29 07:39:23;;;;;;;8.82;2.40;;;;;;;27.11;47.59;98989.25;5058357;28;20051;-63
2022/06/29 07:41:49;;;;;;;11.25;2.15;;;;;;;27.11;47.70;98984.41;5057487;28;20041;-62
2022/06/29 07:44:14;;;;;;;14.50;2.30;;;;;;;27.08;48.02;98981.69;5055548;28;20032;-63
2022/06/29 07:46:40;;;;;;;7.28;2.40;;;;;;;27.15;48.09;98989.97;5058871;28;20052;-62
2022/06/29 07:49:05;;;;;;;11.93;5.57;;;;;;;27.16;47.95;98985.94;5058157;28;20077;-63
2022/06/29 07:51:30;;;;;;;10.25;5.78;;;;;;;27.19;48.30;98985.06;5064907;28;20048;-63
2022/06/29 07:53:56;;;;;;;11.43;6.13;;;;;;;27.20;47.94;98983.84;5057195;28;20052;-63
2022/06/29 07:56:21;;;;;;;11.57;4.10;;;;;;;27.22;48.06;98984.25;5063816;28;20064;-62
2022/06/29 07:58:47;;;;;;;6.28;3.55;;;;;;;27.25;48.19;98988.19;5061059;28;20041;-63
2022/06/29 08:01:12;;;;;;;7.90;2.85;;;;;;;27.24;48.30;98984.59;5059350;28;20135;-65
2022/06/29 08:03:38;;;;;;;7.90;3.00;;;;;;;27.24;48.25;98986.59;5057043;28;20409;-62
2022/06/29 08:06:05;;;;;;;9.45;2.47;;;;;;;27.24;48.49;98983.81;5054653;28;20053;-60
2022/06/29 08:08:31;;;;;;;5.60;2.15;;;;;;;27.27;48.73;98988.53;5057907;28;20041;-59
2022/06/29 08:10:56;;;;;;;6.85;2.08;;;;;;;27.30;48.64;98988.50;5060421;28;20040;-62
2022/06/29 08:13:21;;;;;;;7.75;2.03;;;;;;;27.32;48.80;98988.84;5054297;28;20036;-62
2022/06/29 08:15:47;;;;;;;6.78;2.45;;;;;;;27.35;48.47;98990.00;5057083;28;20151;-61
2022/06/29 08:18:13;;;;;;;12.95;4.20;;;;;;;27.36;48.03;98995.22;5055646;28;20055;-60
2022/06/29 08:20:40;;;;;;;29.65;10.93;;;;;;;27.40;48.09;99001.53;5061342;28;20040;-60
2022/06/29 08:23:06;;;;;;;20.88;8.05;;;;;;;27.36;48.08;98994.38;5058759;28;20508;-61
2022/06/29 08:25:32;;;;;;;21.90;9.15;;;;;;;27.35;47.89;98996.41;5060141;28;20048;-60
2022/06/29 08:27:58;;;;;;;16.50;8.60;;;;;;;27.37;48.18;98999.59;5067775;28;20048;-61
2022/06/29 08:30:24;;;;;;;15.07;8.88;;;;;;;27.37;48.21;98988.38;5062258;28;20515;-63
2022/06/29 08:32:50;;;;;;;22.73;12.05;;;;;;;27.43;48.04;98986.66;5058836;28;20048;-72
2022/06/29 08:35:17;;;;;;;17.30;9.60;;;;;;;27.47;48.21;98994.19;5065191;28;20055;-60
2022/06/29 08:37:44;;;;;;;15.93;6.80;;;;;;;27.48;48.27;98995.78;5058445;28;20068;-61
2022/06/29 08:40:13;;;;;;;13.55;5.43;;;;;;;27.50;48.63;98990.50;5059087;28;20071;-58
2022/06/29 08:42:39;;;;;;;8.20;3.97;;;;;;;27.57;48.29;98988.34;5058988;28;20064;-60
2022/06/29 08:45:07;;;;;;;10.38;3.40;;;;;;;27.61;48.50;98982.69;5056469;28;20067;-62
2022/06/29 08:47:32;;;;;;;6.63;2.80;;;;;;;27.67;48.79;98992.19;5061715;28;20052;-62
2022/06/29 08:49:58;;;;;;;6.43;2.85;;;;;;;27.75;48.66;98987.25;5056727;28;20629;-61
2022/06/29 08:52:26;;;;;;;6.70;2.70;;;;;;;27.78;48.41;98984.34;5056729;28;21789;-64
2022/06/29 08:54:54;;;;;;;9.43;2.70;;;;;;;27.88;48.28;98980.53;5055735;28;20040;-66
2022/06/29 08:57:21;;;;;;;5.88;2.50;;;;;;;27.87;48.35;98981.00;5053318;28;20053;-63
2022/06/29 08:59:48;;;;;;;5.45;2.22;;;;;;;27.92;48.08;98984.06;5061267;28;20041;-65
2022/06/29 09:02:14;;;;;;;8.27;2.30;;;;;;;27.94;48.07;98978.81;5054227;28;20060;-64
2022/06/29 09:04:39;;;;;;;7.15;2.17;;;;;;;28.05;47.79;98972.16;5057627;28;20558;-66
2022/06/29 09:07:05;;;;;;;4.32;1.80;;;;;;;28.08;47.59;98976.94;5058763;28;20152;-62
2022/06/29 09:09:31;;;;;;;3.25;1.73;;;;;;;28.09;47.49;98973.69;5060379;28;20045;-64
2022/06/29 09:11:56;;;;;;;4.93;1.75;;;;;;;28.12;47.61;98975.59;5067475;28;20036;-61
2022/06/29 09:14:24;;;;;;;3.38;1.73;;;;;;;28.12;47.51;98972.78;5076681;28;20048;-62
2022/06/29 09:17:03;;;;;;;4.35;1.70;;;;;;;28.16;47.32;98967.09;5069581;28;20082;-63
2022/06/29 09:19:34;;;;;;;5.40;1.90;;;;;;;28.18;47.13;98970.25;5062681;28;20190;-63
2022/06/29 09:22:00;;;;;;;3.70;1.53;;;;;;;28.17;46.99;98969.47;5062833;28;20049;-62
2022/06/29 09:24:35;;;;;;;3.35;1.67;;;;;;;28.20;46.80;98973.41;5063273;28;20053;-63
2022/06/29 09:27:03;;;;;;;4.65;1.85;;;;;;;28.21;46.86;98978.59;5057310;28;20048;-63
2022/06/29 09:29:44;;;;;;;15.18;4.60;;;;;;;28.17;46.76;98963.84;5068448;28;20615;-61
2022/06/29 09:32:13;;;;;;;15.73;5.38;;;;;;;28.17;47.19;98963.84;5064093;28;20044;-59
2022/06/29 09:34:49;;;;;;;12.13;5.28;;;;;;;28.12;47.20;98961.53;5071734;28;20072;-63
2022/06/29 09:37:20;;;;;;;19.38;7.70;;;;;;;28.15;47.41;98959.91;5053961;28;20083;-58
2022/06/29 09:39:47;;;;;;;20.35;8.13;;;;;;;28.17;47.23;98963.84;5054155;28;20698;-60
2022/06/29 09:42:15;;;;;;;20.92;7.20;;;;;;;28.17;47.24;98955.41;5069754;28;20483;-60
2022/06/29 09:44:42;;;;;;;19.40;6.85;;;;;;;28.16;47.07;98956.63;5058540;28;20073;-61
2022/06/29 09:47:12;;;;;;;16.60;5.78;;;;;;;28.21;46.91;98958.13;5057274;28;20044;-59
2022/06/29 09:49:38;;;;;;;15.48;6.07;;;;;;;28.22;46.94;98954.09;5054426;28;20049;-59
2022/06/29 09:52:06;;;;;;;17.65;6.78;;;;;;;28.18;46.96;98945.75;5067775;28;20063;-57
2022/06/29 09:54:39;;;;;;;19.85;7.60;;;;;;;28.21;47.21;98949.69;5052376;28;20041;-57
2022/06/29 09:57:05;;;;;;;16.27;8.00;;;;;;;28.29;47.71;98942.69;5050148;28;20103;-65
2022/06/29 10:02:43;;;;;;;31.05;12.43;;;;;;;28.18;45.18;98936.50;5059390;28;20054;-58
2022/06/29 10:05:12;;;;;;;36.72;13.00;;;;;;;28.06;47.64;98932.34;5046662;28;20064;-60
2022/06/29 10:07:43;;;;;;;24.63;10.88;;;;;;;27.97;48.90;98932.16;5050058;28;20090;-59
2022/06/29 10:10:20;;;;;;;24.38;10.10;;;;;;;27.93;47.66;98928.63;5060615;28;20129;-58
2022/06/29 10:15:55;;;;;;;29.17;11.88;;;;;;;27.82;48.25;98928.88;5110906;27;20150;-60
2022/06/29 10:18:55;;;;;;;22.70;9.30;;;;;;;27.79;47.06;98926.13;5110404;28;20051;-58
2022/06/29 10:21:27;;;;;;;21.98;7.60;;;;;;;27.72;47.42;98921.47;5110666;28;20048;-59
2022/06/29 10:23:53;;;;;;;17.00;6.53;;;;;;;27.70;47.28;98909.84;5113672;27;20043;-58
2022/06/29 10:29:06;;;;;;;10.75;5.50;;;;;;;27.65;46.27;98913.16;5108650;28;20079;-58
2022/06/29 10:31:56;;;;;;;17.27;5.07;;;;;;;27.60;46.56;98916.47;5107976;28;20122;-58
2022/06/29 10:34:31;;;;;;;10.20;4.75;;;;;;;27.62;46.24;98911.22;5101233;28;20043;-58
2022/06/29 10:37:04;;;;;;;12.32;4.40;;;;;;;27.62;45.90;98906.38;5109809;27;20110;-58
2022/06/29 10:39:45;;;;;;;9.65;3.60;;;;;;;27.62;43.93;98902.78;5101402;28;20147;-58
2022/06/29 10:45:19;;;;;;;9.75;4.95;;;;;;;27.62;44.71;98905.59;5097608;28;20614;-58
2022/06/29 10:47:47;;;;;;;9.32;4.25;;;;;;;27.62;42.35;98897.94;5096869;28;20054;-58
2022/06/29 10:50:14;;;;;;;7.38;3.50;;;;;;;27.60;43.62;98900.41;5091301;27;20185;-58
2022/06/29 10:52:40;;;;;;;8.75;2.33;;;;;;;27.64;42.83;98898.31;5100552;28;20055;-58
2022/06/29 10:55:06;;;;;;;7.03;2.20;;;;;;;27.62;42.38;98891.53;5106538;27;20059;-58
2022/06/29 10:57:34;;;;;;;9.60;5.47;;;;;;;27.67;42.23;98891.88;5099078;27;21142;-57
2022/06/29 10:59:59;;;;;;;30.92;20.23;;;;;;;27.71;41.23;98886.16;5098935;28;20043;-57
2022/06/29 11:02:24;;;;;;;25.15;16.17;;;;;;;27.72;42.49;98887.75;5091906;27;20036;-58
2022/06/29 11:04:50;;;;;;;14.60;8.27;;;;;;;27.78;41.28;98886.00;5098165;27;20110;-57
2022/06/29 11:12:51;;;;;;;5.28;2.10;;;;;;;27.77;41.97;98872.38;5099013;27;20107;-59
2022/06/29 11:18:33;;;;;;;6.60;2.20;;;;;;;27.82;42.27;98867.03;5081370;28;20079;-58
2022/06/29 11:21:02;;;;;;;5.78;2.08;;;;;;;27.86;41.91;98864.94;5102992;27;20040;-58
2022/06/29 11:23:29;;;;;;;7.13;2.28;;;;;;;27.85;42.95;98866.16;5102870;28;20520;-58
2022/06/29 11:25:55;;;;;;;4.45;1.83;;;;;;;27.83;43.44;98863.00;5097664;28;20090;-58
2022/06/29 11:28:25;;;;;;;8.07;2.20;;;;;;;27.84;43.41;98864.56;5093325;27;20059;-59
2022/06/29 11:31:17;;;;;;;5.43;1.92;;;;;;;27.79;43.67;98855.88;5094329;28;20050;-60
2022/06/29 11:33:43;;;;;;;10.88;1.73;;;;;;;27.75;44.25;98857.97;5098160;27;20137;-58
2022/06/29 11:36:14;;;;;;;7.32;1.80;;;;;;;27.72;44.43;98848.41;5101716;27;20096;-58
2022/06/29 11:38:41;;;;;;;5.95;1.70;;;;;;;27.70;43.86;98848.03;5100621;27;20051;-59
2022/06/29 11:41:23;;;;;;;6.07;1.83;;;;;;;27.66;45.58;98844.50;5097990;27;20209;-59
2022/06/29 11:44:04;;;;;;;3.47;1.52;;;;;;;27.69;45.50;98850.06;5099415;28;20044;-59
2022/06/29 11:46:37;;;;;;;5.85;1.67;;;;;;;27.78;44.39;98840.25;5100971;28;20073;-61
2022/06/29 11:51:59;;;;;;;5.22;1.55;;;;;;;27.88;45.66;98831.56;5096774;27;20121;-63
2022/06/29 11:54:44;;;;;;;4.88;1.52;;;;;;;27.88;45.08;98823.13;5092443;27;20103;-67
2022/06/29 11:57:15;;;;;;;5.22;1.75;;;;;;;28.01;46.12;98826.06;5093190;27;20868;-63
2022/06/29 11:59:45;;;;;;;3.65;1.40;;;;;;;28.07;45.99;98815.06;5087735;28;20051;-61
2022/06/29 12:02:12;;;;;;;3.15;1.50;;;;;;;28.09;45.01;98809.81;5092461;27;20073;-58